Time;durP1;ratioP1;P1;durP2;ratioP2;P2;SDS_P1;SDS_P2;PMS_P1;PMS_P2;Temp;Humidity;BMP_temperature;BMP_pressure;BME280_temperature;BME280_humidity;BME280_pressure;Samples;Min_cycle;Max_cycle;Signal;HPM_P1;HPM_P2
2023/09/05 00:00:10;;;;;;;13.15;9.98;;;13.80;99.90;;;;;;5054053;28;20041;-24
2023/09/05 00:02:39;;;;;;;12.25;10.95;;;13.50;99.90;;;;;;5036504;28;20116;-24
2023/09/05 00:05:09;;;;;;;12.40;10.50;;;13.30;99.90;;;;;;5055076;28;20056;-23
2023/09/05 00:07:35;;;;;;;13.02;11.25;;;;;;;;;;5055021;28;20037;-23
2023/09/05 00:10:11;;;;;;;14.40;11.82;;;12.70;99.90;;;;;;5054380;28;20056;-24
2023/09/05 00:12:42;;;;;;;15.63;13.63;;;12.60;99.90;;;;;;5054328;28;20060;-24
2023/09/05 00:15:10;;;;;;;19.48;14.30;;;12.50;99.90;;;;;;5055517;28;20049;-24
2023/09/05 00:17:37;;;;;;;16.05;13.25;;;12.60;99.90;;;;;;5054209;28;20106;-24
2023/09/05 00:20:06;;;;;;;17.33;15.48;;;12.70;99.90;;;;;;5054825;28;20053;-24
2023/09/05 00:22:32;;;;;;;18.45;14.95;;;12.80;99.90;;;;;;5054774;28;20399;-24
2023/09/05 00:24:58;;;;;;;18.33;16.25;;;12.80;99.90;;;;;;5053520;28;20049;-24
2023/09/05 00:27:23;;;;;;;19.77;15.05;;;12.90;99.90;;;;;;5053424;28;20044;-24
2023/09/05 00:29:49;;;;;;;18.17;15.13;;;13.00;99.90;;;;;;5054917;28;20049;-24
2023/09/05 00:32:18;;;;;;;17.13;15.20;;;13.00;99.90;;;;;;5053884;28;20052;-24
2023/09/05 00:34:44;;;;;;;16.75;14.95;;;13.10;99.90;;;;;;5053367;28;20120;-24
2023/09/05 00:37:10;;;;;;;18.17;14.90;;;13.10;99.90;;;;;;5053207;28;20060;-24
2023/09/05 00:39:40;;;;;;;19.27;16.30;;;13.10;99.90;;;;;;5054441;28;20048;-24
2023/09/05 00:42:10;;;;;;;20.25;17.15;;;13.10;99.90;;;;;;5053986;28;20435;-24
2023/09/05 00:44:36;;;;;;;23.30;16.42;;;13.10;99.90;;;;;;5054279;28;20075;-24
2023/09/05 00:47:04;;;;;;;21.70;17.52;;;13.10;99.90;;;;;;5054237;28;20088;-24
2023/09/05 00:49:38;;;;;;;25.65;19.05;;;13.20;99.90;;;;;;5054241;28;20052;-24
2023/09/05 00:52:06;;;;;;;24.13;16.42;;;13.20;99.90;;;;;;5054232;28;20380;-24
2023/09/05 00:54:33;;;;;;;21.63;18.38;;;13.20;99.90;;;;;;5053207;28;20107;-24
2023/09/05 00:57:00;;;;;;;20.27;16.73;;;13.30;99.90;;;;;;5037143;28;20143;-24
2023/09/05 00:59:26;;;;;;;22.63;17.95;;;13.40;99.90;;;;;;5053175;28;20045;-24
2023/09/05 01:01:54;;;;;;;21.52;17.48;;;13.40;99.90;;;;;;5053087;28;20041;-24
2023/09/05 01:04:21;;;;;;;21.17;17.58;;;13.40;99.90;;;;;;5052925;28;20052;-24
2023/09/05 01:07:08;;;;;;;22.02;18.40;;;13.40;99.90;;;;;;5054028;28;20049;-24
2023/09/05 01:09:46;;;;;;;19.50;16.80;;;13.50;99.90;;;;;;5053636;28;20040;-24
2023/09/05 01:12:12;;;;;;;22.65;16.40;;;13.50;99.90;;;;;;5036415;28;20088;-24
2023/09/05 01:14:37;;;;;;;19.98;16.92;;;13.50;99.90;;;;;;5052557;28;20087;-24
2023/09/05 01:17:05;;;;;;;20.27;17.02;;;13.50;99.90;;;;;;5054307;28;20136;-24
2023/09/05 01:19:36;;;;;;;20.42;15.88;;;13.60;99.90;;;;;;5053869;28;20047;-24
2023/09/05 01:22:13;;;;;;;18.90;15.90;;;13.60;99.90;;;;;;5053830;28;20572;-24
2023/09/05 01:24:40;;;;;;;20.20;16.63;;;13.60;99.90;;;;;;5036755;28;20045;-24
2023/09/05 01:27:08;;;;;;;18.25;15.35;;;13.60;99.90;;;;;;5053615;28;20056;-25
2023/09/05 01:29:39;;;;;;;18.92;16.17;;;13.60;99.90;;;;;;5053654;28;20049;-24
2023/09/05 01:32:10;;;;;;;21.25;15.88;;;13.70;99.90;;;;;;5053949;28;20045;-24
2023/09/05 01:34:37;;;;;;;18.83;15.65;;;13.60;99.90;;;;;;5054245;28;20056;-24
2023/09/05 01:37:03;;;;;;;17.60;15.52;;;13.60;99.90;;;;;;5053629;28;20057;-24
2023/09/05 01:39:28;;;;;;;20.30;15.77;;;13.60;99.90;;;;;;5053588;28;20098;-24
2023/09/05 01:41:57;;;;;;;17.85;14.45;;;13.60;99.90;;;;;;5052964;28;20041;-24
2023/09/05 01:44:22;;;;;;;17.02;15.23;;;13.60;99.90;;;;;;5052176;28;20064;-24
2023/09/05 01:46:48;;;;;;;16.45;14.65;;;13.50;99.90;;;;;;5054370;28;20047;-24
2023/09/05 01:49:14;;;;;;;16.05;14.35;;;13.50;99.90;;;;;;5053977;28;20061;-24
2023/09/05 01:51:40;;;;;;;18.23;14.30;;;13.50;99.90;;;;;;5053997;28;20064;-24
2023/09/05 01:54:05;;;;;;;16.02;14.18;;;13.40;99.90;;;;;;5052185;28;20048;-24
2023/09/05 01:56:31;;;;;;;16.17;14.35;;;13.40;99.90;;;;;;5035894;28;20048;-23
2023/09/05 01:58:57;;;;;;;18.48;14.52;;;13.40;99.90;;;;;;5053351;28;20045;-24
2023/09/05 02:01:22;;;;;;;15.82;14.13;;;13.30;99.90;;;;;;5053368;28;20045;-24
2023/09/05 02:03:49;;;;;;;21.42;15.07;;;13.30;99.90;;;;;;5036032;28;20053;-24
2023/09/05 02:06:15;;;;;;;16.58;13.85;;;13.30;99.90;;;;;;5053326;28;20045;-24
2023/09/05 02:08:40;;;;;;;17.05;14.98;;;13.20;99.90;;;;;;5053235;28;20084;-25
2023/09/05 02:11:09;;;;;;;19.48;14.68;;;13.20;99.90;;;;;;5019289;28;20080;-24
2023/09/05 02:13:35;;;;;;;17.38;14.57;;;13.20;99.90;;;;;;5052062;28;20372;-24
2023/09/05 02:16:01;;;;;;;16.83;15.02;;;13.10;99.90;;;;;;5053263;28;20094;-24
2023/09/05 02:18:27;;;;;;;19.40;14.10;;;13.10;99.90;;;;;;5053726;28;20048;-24
2023/09/05 02:21:01;;;;;;;16.02;14.32;;;13.00;99.90;;;;;;5053727;28;20403;-24
2023/09/05 02:23:27;;;;;;;16.17;14.48;;;13.00;99.90;;;;;;5053478;28;20044;-24
2023/09/05 02:26:01;;;;;;;17.80;15.35;;;13.00;99.90;;;;;;5037185;28;20044;-24
2023/09/05 02:28:28;;;;;;;17.88;15.27;;;13.00;99.90;;;;;;5055611;28;20557;-24
2023/09/05 02:30:54;;;;;;;19.02;15.15;;;13.00;99.90;;;;;;5057435;28;20088;-24
2023/09/05 02:33:20;;;;;;;22.77;14.00;;;12.90;99.90;;;;;;5056634;28;20076;-24
2023/09/05 02:35:46;;;;;;;18.05;15.63;;;12.90;99.90;;;;;;5056811;28;20473;-24
2023/09/05 02:38:13;;;;;;;18.63;15.30;;;12.80;99.90;;;;;;5055604;28;20439;-24
2023/09/05 02:40:48;;;;;;;19.98;15.27;;;12.80;99.90;;;;;;5056762;28;20084;-23
2023/09/05 02:43:14;;;;;;;18.67;14.73;;;12.80;99.90;;;;;;5055203;28;20510;-23
2023/09/05 02:45:40;;;;;;;16.33;14.57;;;12.80;99.90;;;;;;5055597;28;20150;-23
2023/09/05 02:48:09;;;;;;;20.17;14.93;;;12.80;99.90;;;;;;5057096;28;20080;-23
2023/09/05 02:50:34;;;;;;;17.95;15.13;;;12.70;99.90;;;;;;5055843;28;20132;-24
2023/09/05 02:53:00;;;;;;;18.27;14.80;;;12.80;99.90;;;;;;5056535;28;20076;-23
2023/09/05 02:55:26;;;;;;;19.35;15.32;;;12.80;99.90;;;;;;5055776;28;20078;-23
2023/09/05 02:57:52;;;;;;;16.40;14.48;;;12.70;99.90;;;;;;5055455;28;20060;-24
2023/09/05 03:00:19;;;;;;;18.30;14.65;;;12.70;99.90;;;;;;5056388;28;20123;-23
2023/09/05 03:02:46;;;;;;;20.42;15.02;;;12.70;99.90;;;;;;5056596;28;20084;-23
2023/09/05 03:05:13;;;;;;;19.42;15.45;;;12.70;99.90;;;;;;5056534;28;20045;-23
2023/09/05 03:07:39;;;;;;;18.60;14.38;;;12.70;99.90;;;;;;5056151;28;20045;-23
2023/09/05 03:10:05;;;;;;;22.35;15.73;;;12.70;99.90;;;;;;5056733;28;20102;-23
2023/09/05 03:12:31;;;;;;;18.10;14.75;;;12.70;99.90;;;;;;5056130;28;20084;-23
2023/09/05 03:14:57;;;;;;;17.00;14.75;;;12.70;99.90;;;;;;5056381;28;20083;-23
2023/09/05 03:17:23;;;;;;;18.42;15.15;;;12.70;99.90;;;;;;5056011;28;20504;-24
2023/09/05 03:19:49;;;;;;;20.73;15.45;;;12.70;99.90;;;;;;5054779;28;20049;-24
2023/09/05 03:22:14;;;;;;;18.63;15.40;;;12.70;99.90;;;;;;5055946;28;20045;-23
2023/09/05 03:24:40;;;;;;;17.85;14.30;;;12.70;99.90;;;;;;5055793;28;20048;-24
2023/09/05 03:27:06;;;;;;;18.52;15.75;;;12.70;99.90;;;;;;5054608;28;20390;-24
2023/09/05 03:29:32;;;;;;;20.70;15.85;;;12.70;99.90;;;;;;5055231;28;20067;-23
2023/09/05 03:31:57;;;;;;;17.38;15.13;;;12.80;99.90;;;;;;5056044;28;20372;-23
2023/09/05 03:34:23;;;;;;;19.83;16.33;;;12.70;99.90;;;;;;5055765;28;20075;-23
2023/09/05 03:36:49;;;;;;;21.83;15.90;;;12.80;99.90;;;;;;5055408;28;20120;-24
2023/09/05 03:39:15;;;;;;;18.95;15.77;;;12.70;99.90;;;;;;5055644;28;20518;-23
2023/09/05 03:41:41;;;;;;;20.98;15.88;;;12.70;99.90;;;;;;5055615;28;20054;-23
2023/09/05 03:44:07;;;;;;;18.60;15.18;;;12.70;99.90;;;;;;5037906;28;20495;-24
2023/09/05 03:46:33;;;;;;;17.80;14.95;;;12.70;99.90;;;;;;5055464;28;20152;-24
2023/09/05 03:48:59;;;;;;;20.70;14.88;;;12.60;99.90;;;;;;5055396;28;20049;-23
2023/09/05 03:51:27;;;;;;;17.80;14.88;;;12.60;99.90;;;;;;5055485;28;20045;-23
2023/09/05 03:53:53;;;;;;;17.33;14.15;;;12.50;99.90;;;;;;5054381;28;20526;-23
2023/09/05 03:56:21;;;;;;;15.50;13.43;;;12.40;99.90;;;;;;5054163;28;20426;-24
2023/09/05 03:58:47;;;;;;;17.42;11.98;;;12.30;99.90;;;;;;5054314;28;20128;-24
2023/09/05 04:01:14;;;;;;;14.57;12.60;;;12.10;99.90;;;;;;5055243;28;20558;-24
2023/09/05 04:03:40;;;;;;;17.42;14.38;;;12.10;99.90;;;;;;5055213;28;20091;-23
2023/09/05 04:06:05;;;;;;;19.52;13.45;;;12.00;99.90;;;;;;5055152;28;20080;-23
2023/09/05 04:08:31;;;;;;;16.75;12.82;;;11.90;99.90;;;;;;5055296;28;20131;-23
2023/09/05 04:10:59;;;;;;;16.55;12.45;;;11.90;99.90;;;;;;5054819;28;20407;-24
2023/09/05 04:13:25;;;;;;;17.52;14.00;;;11.80;99.90;;;;;;5055814;28;20116;-24
2023/09/05 04:15:51;;;;;;;12.65;11.13;;;11.70;99.90;;;;;;5054929;28;20399;-24
2023/09/05 04:18:18;;;;;;;15.70;11.43;;;11.50;99.90;;;;;;5053735;28;20048;-24
2023/09/05 04:20:43;;;;;;;13.43;10.63;;;11.40;99.90;;;;;;5054845;28;20124;-24
2023/09/05 04:23:09;;;;;;;12.50;11.20;;;11.20;99.90;;;;;;5054820;28;20470;-24
2023/09/05 04:25:39;;;;;;;16.00;12.30;;;11.20;99.90;;;;;;5054744;28;20044;-24
2023/09/05 04:28:06;;;;;;;19.77;14.25;;;11.20;99.90;;;;;;5037612;28;20053;-24
2023/09/05 04:30:33;;;;;;;22.35;15.77;;;11.20;99.90;;;;;;5053462;28;20048;-24
2023/09/05 04:33:00;;;;;;;22.45;16.67;;;11.30;99.90;;;;;;5053295;28;20507;-24
2023/09/05 04:35:26;;;;;;;20.27;16.48;;;11.40;99.90;;;;;;5054483;28;20457;-24
2023/09/05 04:37:52;;;;;;;23.65;17.42;;;11.50;99.90;;;;;;5053732;28;20045;-24
2023/09/05 04:40:18;;;;;;;23.30;18.20;;;11.60;99.90;;;;;;5054833;28;20106;-24
2023/09/05 04:42:44;;;;;;;23.77;17.98;;;11.70;99.90;;;;;;5053822;28;20053;-23
2023/09/05 04:45:10;;;;;;;26.48;18.02;;;11.80;99.90;;;;;;5054356;28;20438;-23
2023/09/05 04:47:38;;;;;;;27.83;19.95;;;11.80;99.90;;;;;;5035835;28;20040;-23
2023/09/05 04:50:05;;;;;;;26.17;19.23;;;11.90;99.90;;;;;;5054328;28;20502;-25
2023/09/05 04:52:31;;;;;;;27.88;19.00;;;12.00;99.90;;;;;;5052760;28;20049;-23
2023/09/05 04:54:58;;;;;;;26.75;19.65;;;12.00;99.90;;;;;;5054087;28;20092;-23
2023/09/05 04:57:24;;;;;;;27.88;19.20;;;12.00;99.90;;;;;;5054128;28;20045;-24
2023/09/05 04:59:56;;;;;;;28.70;20.30;;;12.10;99.90;;;;;;5054118;28;20045;-24
2023/09/05 05:02:23;;;;;;;28.25;18.75;;;12.20;99.90;;;;;;5053460;28;20106;-24
2023/09/05 05:04:49;;;;;;;25.38;19.15;;;12.20;99.90;;;;;;5054323;28;20045;-24
2023/09/05 05:07:15;;;;;;;26.00;20.50;;;12.30;99.90;;;;;;5053952;28;20048;-24
2023/09/05 05:09:42;;;;;;;29.85;20.27;;;12.30;99.90;;;;;;5052992;28;20098;-23
2023/09/05 05:12:08;;;;;;;30.40;19.17;;;12.30;99.90;;;;;;5053911;28;20044;-24
2023/09/05 05:14:35;;;;;;;29.15;20.33;;;12.40;99.90;;;;;;5053897;28;20055;-24
2023/09/05 05:17:02;;;;;;;26.58;20.15;;;12.40;99.90;;;;;;5052899;28;20045;-24
2023/09/05 05:19:27;;;;;;;27.35;18.77;;;12.50;99.90;;;;;;5053838;28;20091;-24
2023/09/05 05:21:53;;;;;;;24.40;18.95;;;12.60;99.90;;;;;;5054315;28;20053;-24
2023/09/05 05:24:19;;;;;;;25.40;18.55;;;12.60;99.90;;;;;;5052833;28;20102;-24
2023/09/05 05:26:45;;;;;;;26.60;19.15;;;12.80;99.90;;;;;;5053713;28;20087;-24
2023/09/05 05:29:11;;;;;;;24.65;19.13;;;12.80;99.90;;;;;;5052441;28;20049;-24
2023/09/05 05:31:40;;;;;;;24.23;17.60;;;12.80;99.90;;;;;;5052412;28;20056;-24
2023/09/05 05:34:06;;;;;;;23.58;17.20;;;12.80;99.90;;;;;;5053468;28;20102;-24
2023/09/05 05:36:32;;;;;;;21.30;17.02;;;12.90;99.90;;;;;;5053602;28;20055;-24
2023/09/05 05:39:02;;;;;;;23.60;18.02;;;12.90;99.90;;;;;;5053588;28;20045;-24
2023/09/05 05:41:28;;;;;;;23.08;17.23;;;13.00;99.90;;;;;;5052388;28;20076;-24
2023/09/05 05:43:55;;;;;;;22.60;17.27;;;13.00;99.90;;;;;;5053173;28;20060;-23
2023/09/05 05:46:20;;;;;;;25.15;17.20;;;13.10;99.90;;;;;;5053516;28;20049;-23
2023/09/05 05:48:46;;;;;;;19.50;15.23;;;13.10;99.90;;;;;;5035766;28;20049;-24
2023/09/05 05:51:14;;;;;;;21.20;15.60;;;13.20;99.90;;;;;;5053038;28;20368;-23
2023/09/05 05:53:40;;;;;;;21.50;15.20;;;13.30;99.90;;;;;;5053462;28;20052;-24
2023/09/05 05:56:08;;;;;;;21.42;15.43;;;13.40;99.90;;;;;;5052316;28;20052;-24
2023/09/05 05:58:35;;;;;;;19.42;14.90;;;13.40;99.90;;;;;;5052687;28;20395;-24
2023/09/05 06:01:00;;;;;;;21.27;14.82;;;13.50;99.90;;;;;;5057403;28;20049;-24
2023/09/05 06:03:26;;;;;;;17.20;14.48;;;13.60;99.90;;;;;;5057414;28;20067;-24
2023/09/05 06:05:52;;;;;;;18.30;14.60;;;13.70;99.90;;;;;;5057339;28;20098;-24
2023/09/05 06:08:18;;;;;;;17.52;13.68;;;13.80;99.90;;;;;;5058046;28;20049;-23
2023/09/05 06:10:45;;;;;;;15.57;13.25;;;13.90;99.90;;;;;;5039975;28;20437;-24
2023/09/05 06:13:11;;;;;;;16.92;12.85;;;14.00;99.90;;;;;;5057317;28;20088;-24
2023/09/05 06:15:37;;;;;;;18.13;13.32;;;14.10;99.90;;;;;;5056264;28;20059;-24
2023/09/05 06:18:04;;;;;;;15.55;12.38;;;14.10;99.90;;;;;;5056482;28;20049;-24
2023/09/05 06:20:34;;;;;;;16.27;12.25;;;14.20;99.90;;;;;;5057130;28;20049;-23
2023/09/05 06:23:04;;;;;;;16.25;13.25;;;14.20;99.90;;;;;;5039223;28;20144;-24
2023/09/05 06:25:29;;;;;;;15.98;12.25;;;14.30;99.90;;;;;;5056053;28;20506;-24
2023/09/05 06:27:55;;;;;;;15.32;12.75;;;14.40;99.90;;;;;;5056898;28;20037;-24
2023/09/05 06:30:22;;;;;;;15.98;12.15;;;14.50;99.90;;;;;;5056928;28;20113;-24
2023/09/05 06:32:48;;;;;;;15.02;12.48;;;14.50;99.90;;;;;;5056690;28;20049;-25
2023/09/05 06:35:14;;;;;;;20.85;11.38;;;14.70;99.90;;;;;;5056836;28;20106;-24
2023/09/05 06:37:41;;;;;;;14.35;12.13;;;14.80;99.90;;;;;;5056796;28;20040;-24
2023/09/05 06:40:18;;;;;;;15.48;11.68;;;14.80;99.90;;;;;;5056791;28;20055;-24
2023/09/05 06:42:44;;;;;;;18.13;11.70;;;15.00;99.90;;;;;;5056666;28;20053;-24
2023/09/05 06:45:11;;;;;;;14.30;10.75;;;15.10;99.90;;;;;;5056601;28;20053;-24
2023/09/05 06:47:37;;;;;;;12.82;10.90;;;15.20;99.90;;;;;;5055653;28;20049;-24
2023/09/05 06:50:06;;;;;;;20.90;10.70;;;15.30;99.90;;;;;;5056605;28;20048;-24
2023/09/05 06:52:32;;;;;;;12.00;10.13;;;15.40;99.90;;;;;;5056599;28;20518;-24
2023/09/05 06:54:58;;;;;;;12.73;10.00;;;15.50;99.90;;;;;;5056534;28;20045;-24
2023/09/05 06:57:25;;;;;;;17.17;10.15;;;15.70;99.90;;;;;;5055532;28;20072;-24
2023/09/05 06:59:52;;;;;;;15.15;10.18;;;15.80;99.90;;;;;;5056673;28;20056;-24
2023/09/05 07:02:18;;;;;;;15.90;10.38;;;15.90;99.90;;;;;;5056370;28;20084;-24
2023/09/05 07:04:44;;;;;;;14.25;10.55;;;16.00;99.90;;;;;;5056822;28;20044;-24
2023/09/05 07:07:09;;;;;;;13.10;10.40;;;16.20;99.90;;;;;;5056188;28;20041;-24
2023/09/05 07:09:35;;;;;;;13.27;9.73;;;16.30;99.90;;;;;;5038688;28;20055;-24
2023/09/05 07:12:03;;;;;;;14.45;10.02;;;16.40;99.90;;;;;;5055738;28;20049;-24
2023/09/05 07:14:29;;;;;;;12.32;9.10;;;16.40;99.90;;;;;;5056086;28;20045;-24
2023/09/05 07:16:55;;;;;;;13.15;10.13;;;16.60;99.90;;;;;;5056569;28;20132;-25
2023/09/05 07:19:21;;;;;;;12.43;9.55;;;16.70;99.90;;;;;;5054817;28;20128;-24
2023/09/05 07:21:46;;;;;;;12.57;10.18;;;16.80;99.90;;;;;;5055345;28;20049;-24
2023/09/05 07:24:14;;;;;;;11.13;9.75;;;16.90;99.90;;;;;;5038157;28;20053;-24
2023/09/05 07:26:41;;;;;;;13.48;10.40;;;17.00;99.90;;;;;;5055971;28;20122;-24
2023/09/05 07:29:10;;;;;;;15.75;10.73;;;17.20;99.90;;;;;;5054384;28;20399;-24
2023/09/05 07:31:40;;;;;;;11.95;9.63;;;17.30;99.90;;;;;;5054558;28;20100;-24
2023/09/05 07:34:06;;;;;;;9.10;7.80;;;17.50;99.90;;;;;;5055806;28;20479;-24
2023/09/05 07:36:33;;;;;;;9.52;7.93;;;17.60;99.90;;;;;;5054734;28;20056;-24
2023/09/05 07:39:01;;;;;;;9.68;7.78;;;17.80;99.90;;;;;;5055115;28;20041;-24
2023/09/05 07:41:28;;;;;;;14.23;7.57;;;17.90;99.90;;;;;;5055602;28;20384;-24
2023/09/05 07:43:54;;;;;;;12.57;7.15;;;18.00;99.90;;;;;;5055224;28;20057;-24
2023/09/05 07:46:20;;;;;;;9.77;7.35;;;18.20;99.90;;;;;;5056346;28;20314;-24
2023/09/05 07:48:47;;;;;;;11.27;7.70;;;18.30;99.90;;;;;;5055298;28;20494;-24
2023/09/05 07:51:13;;;;;;;11.52;6.85;;;18.40;99.90;;;;;;5054193;28;20049;-24
2023/09/05 07:53:39;;;;;;;9.85;7.60;;;18.60;99.90;;;;;;5055383;28;20406;-24
2023/09/05 07:56:06;;;;;;;14.65;7.10;;;18.70;99.90;;;;;;5056115;28;20128;-24
2023/09/05 07:58:33;;;;;;;13.43;6.93;;;18.90;99.90;;;;;;5055346;28;20088;-25
2023/09/05 08:00:59;;;;;;;9.63;6.95;;;19.00;99.90;;;;;;5054045;28;20049;-24
2023/09/05 08:03:26;;;;;;;9.60;6.47;;;19.10;99.90;;;;;;5055189;28;20124;-25
2023/09/05 08:05:54;;;;;;;11.43;6.50;;;19.20;99.90;;;;;;5037589;28;20068;-24
2023/09/05 08:08:20;;;;;;;9.60;5.88;;;19.40;99.90;;;;;;5054761;28;20110;-24
2023/09/05 08:10:46;;;;;;;8.02;5.82;;;19.50;99.90;;;;;;5055615;28;20056;-25
2023/09/05 08:13:14;;;;;;;7.50;5.85;;;19.60;99.90;;;;;;5053773;28;20156;-25
2023/09/05 08:15:41;;;;;;;11.18;6.00;;;19.70;99.90;;;;;;5037598;28;20049;-25
2023/09/05 08:18:07;;;;;;;10.75;6.55;;;19.80;99.90;;;;;;5053861;28;20498;-24
2023/09/05 08:20:33;;;;;;;12.82;5.72;;;19.90;99.90;;;;;;5054848;28;20053;-25
2023/09/05 08:23:01;;;;;;;8.75;5.65;;;20.10;99.90;;;;;;5054092;28;20542;-25
2023/09/05 08:25:27;;;;;;;9.05;4.82;;;20.20;99.90;;;;;;5053559;28;20052;-25
2023/09/05 08:27:56;;;;;;;10.15;5.75;;;20.30;99.90;;;;;;5036988;28;20046;-25
2023/09/05 08:30:24;;;;;;;8.75;4.60;;;20.40;99.90;;;;;;5054654;28;20045;-25
2023/09/05 08:32:54;;;;;;;8.90;4.63;;;20.50;99.90;;;;;;5037887;28;20131;-25
2023/09/05 08:35:20;;;;;;;7.32;4.97;;;20.60;34.60;;;;;;5054573;28;20091;-26
2023/09/05 08:37:46;;;;;;;7.30;5.22;;;20.70;15.90;;;;;;5053388;28;20045;-25
2023/09/05 08:40:13;;;;;;;7.03;4.30;;;20.80;1.00;;;;;;5054759;28;20045;-26
2023/09/05 08:42:39;;;;;;;7.70;4.45;;;21.00;1.00;;;;;;5054358;28;20052;-24
2023/09/05 08:45:15;;;;;;;8.73;4.10;;;21.10;1.00;;;;;;5174001;27;20425;-26
2023/09/05 08:47:41;;;;;;;5.30;3.58;;;21.20;1.00;;;;;;5173466;27;20054;-26
2023/09/05 08:50:08;;;;;;;11.40;4.15;;;21.40;99.90;;;;;;5173528;27;20141;-26
2023/09/05 08:52:39;;;;;;;7.13;3.88;;;21.50;99.90;;;;;;5173488;27;20480;-26
2023/09/05 08:55:06;;;;;;;8.38;3.75;;;21.70;99.90;;;;;;5173515;27;20046;-27
2023/09/05 08:57:35;;;;;;;9.23;3.83;;;21.80;99.90;;;;;;5173983;27;20053;-26
2023/09/05 09:00:08;;;;;;;6.13;3.58;;;22.00;99.90;;;;;;5173369;27;20511;-26
2023/09/05 09:02:38;;;;;;;6.22;3.08;;;22.10;99.90;;;;;;5172327;27;20133;-25
2023/09/05 09:05:04;;;;;;;5.13;3.20;;;;;;;;;;5155456;27;20046;-24
2023/09/05 09:07:30;;;;;;;9.68;3.60;;;22.60;99.90;;;;;;5173830;27;20064;-25
2023/09/05 09:10:14;;;;;;;7.28;4.57;;;24.60;99.90;;;;;;5173214;27;20098;-26
2023/09/05 09:12:40;;;;;;;6.93;3.60;;;25.20;1.00;;;;;;5172642;27;20404;-26
2023/09/05 09:15:10;;;;;;;6.80;3.92;;;26.60;99.90;;;;;;5173116;27;20039;-26
2023/09/05 09:17:36;;;;;;;6.10;3.85;;;27.30;99.90;;;;;;5173555;27;20047;-26
2023/09/05 09:20:06;;;;;;;8.85;3.80;;;27.90;99.90;;;;;;5171829;27;20053;-26
2023/09/05 09:22:31;;;;;;;5.88;3.80;;;28.40;1.00;;;;;;5172243;27;20050;-26
2023/09/05 09:24:57;;;;;;;8.77;4.60;;;28.90;1.00;;;;;;5172754;27;20384;-26
2023/09/05 09:27:23;;;;;;;8.60;3.95;;;29.20;99.90;;;;;;5171843;27;20054;-26
2023/09/05 09:29:57;;;;;;;5.50;3.00;;;29.50;99.90;;;;;;5172773;27;20034;-27
2023/09/05 09:32:24;;;;;;;10.95;3.85;;;29.80;99.90;;;;;;5173101;27;20046;-27
2023/09/05 09:34:50;;;;;;;6.75;3.90;;;30.10;56.90;;;;;;5171470;27;20125;-28
2023/09/05 09:37:26;;;;;;;5.88;3.40;;;30.40;22.30;;;;;;5172692;27;20095;-27
2023/09/05 09:40:00;;;;;;;4.60;3.40;;;30.60;1.00;;;;;;5172426;27;20054;-27
2023/09/05 09:42:27;;;;;;;6.60;2.95;;;30.90;1.00;;;;;;5171959;27;20046;-28
2023/09/05 09:44:53;;;;;;;5.40;3.47;;;31.20;1.00;;;;;;5172141;27;20046;-27
2023/09/05 09:47:19;;;;;;;5.00;3.17;;;31.40;99.90;;;;;;5172467;27;20046;-27
2023/09/05 09:49:49;;;;;;;6.22;3.20;;;31.40;99.90;;;;;;5171691;27;20556;-27
2023/09/05 09:52:17;;;;;;;5.80;3.58;;;31.50;99.90;;;;;;5172021;27;20096;-27
2023/09/05 09:54:47;;;;;;;5.30;2.90;;;31.60;99.90;;;;;;5169992;27;20392;-27
2023/09/05 09:57:24;;;;;;;8.48;3.10;;;31.70;99.90;;;;;;5140682;27;20421;-28
2023/09/05 09:59:58;;;;;;;3.05;2.30;;;31.80;99.90;;;;;;5157384;27;20549;-27
2023/09/05 10:02:25;;;;;;;4.47;2.40;;;32.00;99.90;;;;;;5158358;27;20047;-27
2023/09/05 10:04:53;;;;;;;11.20;2.85;;;32.20;99.90;;;;;;5158143;27;20050;-27
2023/09/05 10:07:19;;;;;;;5.85;2.40;;;32.50;99.90;;;;;;5157202;27;20082;-27
2023/09/05 10:09:47;;;;;;;3.38;2.13;;;32.50;99.90;;;;;;5156888;27;20042;-27
2023/09/05 10:12:18;;;;;;;4.40;1.80;;;32.60;99.90;;;;;;5158095;27;20123;-27
2023/09/05 10:14:46;;;;;;;3.87;2.43;;;32.70;99.90;;;;;;5157118;27;20492;-28
2023/09/05 10:17:13;;;;;;;3.38;2.00;;;33.00;99.90;;;;;;5156934;27;20054;-28
2023/09/05 10:19:42;;;;;;;6.68;1.98;;;33.10;99.90;;;;;;5157964;27;20074;-27
2023/09/05 10:22:09;;;;;;;4.75;1.70;;;33.30;99.90;;;;;;5158508;27;20396;-27
2023/09/05 10:24:37;;;;;;;5.03;1.95;;;33.40;99.90;;;;;;5156487;27;20039;-28
2023/09/05 10:27:03;;;;;;;5.05;2.00;;;33.50;99.90;;;;;;5157822;27;20082;-27
2023/09/05 10:29:41;;;;;;;5.15;1.98;;;33.60;99.90;;;;;;5157509;27;20492;-27
2023/09/05 10:32:08;;;;;;;3.63;1.83;;;33.70;99.90;;;;;;5158366;27;20042;-28
2023/09/05 10:34:48;;;;;;;4.43;1.65;;;33.80;99.90;;;;;;5157637;27;20127;-27
2023/09/05 10:37:17;;;;;;;3.85;1.60;;;34.00;99.90;;;;;;5157567;27;20047;-27
2023/09/05 10:39:47;;;;;;;4.53;1.52;;;33.90;99.90;;;;;;5157561;27;20123;-28
2023/09/05 10:42:13;;;;;;;3.38;1.63;;;33.60;99.90;;;;;;5157527;27;20039;-28
2023/09/05 10:44:45;;;;;;;2.15;1.25;;;33.30;99.90;;;;;;5157266;27;20059;-27
2023/09/05 10:47:30;;;;;;;3.63;1.42;;;33.40;99.90;;;;;;5157469;27;20046;-28
2023/09/05 10:50:07;;;;;;;3.05;1.80;;;33.40;99.90;;;;;;5157402;27;20468;-28
2023/09/05 10:52:33;;;;;;;2.95;1.90;;;33.80;99.90;;;;;;5157333;27;20081;-27
2023/09/05 10:55:29;;;;;;;4.57;1.90;;;34.00;99.90;;;;;;5157245;27;20045;-28
2023/09/05 10:57:59;;;;;;;6.32;1.92;;;34.20;99.90;;;;;;5158079;27;20050;-27
2023/09/05 11:00:29;;;;;;;4.35;1.90;;;34.20;99.90;;;;;;5157088;27;20046;-27
2023/09/05 11:03:08;;;;;;;4.55;1.80;;;34.50;99.90;;;;;;5155948;27;20050;-27
2023/09/05 11:05:34;;;;;;;3.42;1.83;;;34.30;99.90;;;;;;5157090;27;20072;-28
2023/09/05 11:08:00;;;;;;;2.92;1.80;;;34.60;99.90;;;;;;5155978;27;20046;-28
2023/09/05 11:10:27;;;;;;;3.75;1.95;;;34.40;99.90;;;;;;5155938;27;20046;-28
2023/09/05 11:12:54;;;;;;;2.88;1.75;;;34.30;99.90;;;;;;5156946;27;20057;-27
2023/09/05 11:15:35;;;;;;;5.53;1.73;;;34.30;99.90;;;;;;5156710;27;20424;-28
2023/09/05 11:18:04;;;;;;;5.75;1.70;;;34.50;99.90;;;;;;5157402;27;20123;-27
2023/09/05 11:20:39;;;;;;;4.45;1.70;;;34.50;99.90;;;;;;5157267;27;20051;-27
2023/09/05 11:23:14;;;;;;;2.42;1.88;;;34.40;99.90;;;;;;5156590;27;20050;-28
2023/09/05 11:25:45;;;;;;;2.10;1.48;;;34.50;99.90;;;;;;5156643;27;20047;-27
2023/09/05 11:28:11;;;;;;;7.63;2.08;;;34.80;99.90;;;;;;5156219;27;20043;-28
2023/09/05 11:30:45;;;;;;;3.38;1.48;;;34.80;99.90;;;;;;5155386;27;20397;-28
2023/09/05 11:33:15;;;;;;;5.93;1.60;;;35.00;99.90;;;;;;5156166;27;20119;-28
2023/09/05 11:35:45;;;;;;;4.45;1.40;;;35.00;99.90;;;;;;5156516;27;20053;-29
2023/09/05 11:38:15;;;;;;;4.45;1.63;;;35.30;99.90;;;;;;5156622;27;20050;-27
2023/09/05 11:40:53;;;;;;;5.65;1.85;;;35.10;99.90;;;;;;5156333;27;20043;-28
2023/09/05 11:43:18;;;;;;;3.47;1.60;;;35.10;99.90;;;;;;5156365;27;20041;-28
2023/09/05 11:45:47;;;;;;;2.58;1.30;;;35.20;99.90;;;;;;5155508;27;20129;-27
2023/09/05 11:48:16;;;;;;;3.65;1.65;;;35.40;99.90;;;;;;5156239;27;20043;-28
2023/09/05 11:50:44;;;;;;;2.55;1.30;;;35.30;99.90;;;;;;5155855;27;20492;-27
2023/09/05 11:53:15;;;;;;;3.22;1.95;;;35.40;99.90;;;;;;5156649;27;20038;-27
2023/09/05 11:55:42;;;;;;;4.32;1.33;;;35.30;99.90;;;;;;5155117;27;20468;-29
2023/09/05 11:58:07;;;;;;;4.50;1.55;;;35.50;99.90;;;;;;5155945;27;20125;-28
2023/09/05 12:00:42;;;;;;;2.80;1.40;;;35.60;1.00;;;;;;5155453;27;20179;-28
2023/09/05 12:03:09;;;;;;;2.08;1.52;;;35.80;1.00;;;;;;5156443;27;20035;-28
2023/09/05 12:05:37;;;;;;;3.17;1.50;;;35.60;1.00;;;;;;5155827;27;20500;-29
2023/09/05 12:08:07;;;;;;;2.10;1.20;;;35.80;1.00;;;;;;5155816;27;20050;-28
2023/09/05 12:10:41;;;;;;;5.97;1.40;;;35.90;1.00;;;;;;5155827;27;20049;-27
2023/09/05 12:13:08;;;;;;;2.30;1.20;;;35.90;1.00;;;;;;5155746;27;20042;-28
2023/09/05 12:15:35;;;;;;;3.78;1.10;;;36.10;1.00;;;;;;5155742;27;20089;-28
2023/09/05 12:18:05;;;;;;;3.30;1.75;;;36.40;1.00;;;;;;5155031;27;20064;-28
2023/09/05 12:20:35;;;;;;;2.05;1.38;;;36.60;1.00;;;;;;5155225;27;20384;-27
2023/09/05 12:23:05;;;;;;;2.08;1.20;;;36.90;1.00;;;;;;5156397;27;20045;-28
2023/09/05 12:25:31;;;;;;;2.58;1.52;;;36.60;1.00;;;;;;5155533;27;20487;-28
2023/09/05 12:28:16;;;;;;;1.80;1.10;;;36.50;1.00;;;;;;5155573;27;20039;-28
2023/09/05 12:30:42;;;;;;;4.30;1.00;;;36.60;1.00;;;;;;5155605;27;20047;-28
2023/09/05 12:33:08;;;;;;;2.03;1.10;;;36.40;1.00;;;;;;5155505;27;20046;-28
2023/09/05 12:35:34;;;;;;;5.95;2.28;;;36.40;1.00;;;;;;5155494;27;20069;-28
2023/09/05 12:38:07;;;;;;;3.92;1.40;;;36.60;1.00;;;;;;5155464;27;20066;-28